Time;durP1;ratioP1;P1;durP2;ratioP2;P2;SDS_P1;SDS_P2;PMS_P1;PMS_P2;Temp;Humidity;BMP_temperature;BMP_pressure;BME280_temperature;BME280_humidity;BME280_pressure;Samples;Min_cycle;Max_cycle;Signal;HPM_P1;HPM_P2
2021/06/07 00:02:09;;;;;;;14.63;13.23;;;;;;;21.35;58.59;95200.03;5071152;28;20196;-68
2021/06/07 00:04:36;;;;;;;16.27;13.30;;;;;;;21.23;58.83;95187.31;5068315;28;20188;-67
2021/06/07 00:07:07;;;;;;;15.00;13.57;;;;;;;21.17;58.68;95203.78;5062388;28;20697;-68
2021/06/07 00:09:34;;;;;;;15.13;13.60;;;;;;;21.36;57.99;95201.56;5062472;28;20215;-67
2021/06/07 00:12:08;;;;;;;15.53;14.03;;;;;;;21.11;59.17;95185.28;5075242;28;20198;-67
2021/06/07 00:14:35;;;;;;;16.00;13.73;;;;;;;21.23;58.99;95199.84;5063356;28;20192;-68
2021/06/07 00:17:05;;;;;;;15.20;13.63;;;;;;;21.26;58.93;95199.25;5069745;28;20206;-67
2021/06/07 00:19:34;;;;;;;14.37;13.07;;;;;;;21.11;59.40;95198.59;5056049;28;20197;-67
2021/06/07 00:22:02;;;;;;;14.40;12.87;;;;;;;21.07;59.71;95200.34;5072166;28;20223;-67
2021/06/07 00:24:29;;;;;;;16.33;14.67;;;;;;;20.98;59.84;95194.16;5065279;28;20201;-68
2021/06/07 00:26:57;;;;;;;16.43;14.27;;;;;;;20.95;59.55;95197.47;5057787;28;20216;-69
2021/06/07 00:29:24;;;;;;;16.73;14.97;;;;;;;21.02;59.02;95195.16;5066831;28;20288;-68
2021/06/07 00:31:51;;;;;;;15.20;13.73;;;;;;;21.10;59.40;95183.72;5069943;28;20238;-67
2021/06/07 00:34:18;;;;;;;14.90;13.40;;;;;;;21.09;59.47;95187.47;5068882;28;20203;-67
2021/06/07 00:36:45;;;;;;;14.97;13.57;;;;;;;21.17;59.66;95193.13;5074654;28;20294;-68
2021/06/07 00:39:15;;;;;;;18.40;13.90;;;;;;;21.18;59.78;95190.91;5075436;28;20658;-68
2021/06/07 00:41:45;;;;;;;15.43;13.83;;;;;;;21.06;60.16;95188.09;5075919;28;20278;-67
2021/06/07 00:44:16;;;;;;;14.67;13.17;;;;;;;21.11;59.90;95190.59;5068400;28;20203;-67
2021/06/07 00:46:43;;;;;;;15.83;14.20;;;;;;;21.10;60.14;95189.06;5069782;28;20207;-68
2021/06/07 00:49:11;;;;;;;14.60;13.30;;;;;;;21.04;60.20;95189.50;5055612;28;20200;-68
2021/06/07 00:51:40;;;;;;;14.50;13.03;;;;;;;20.97;60.25;95168.63;5069128;28;20269;-68
2021/06/07 00:54:08;;;;;;;16.60;14.40;;;;;;;21.16;60.04;95192.34;5070145;28;20655;-67
2021/06/07 00:56:35;;;;;;;15.87;14.23;;;;;;;21.13;59.77;95191.06;5063992;28;20208;-68
2021/06/07 00:59:03;;;;;;;15.43;13.93;;;;;;;21.06;59.15;95189.97;5067915;28;20192;-67
2021/06/07 01:01:30;;;;;;;15.03;13.63;;;;;;;21.14;59.05;95195.31;5052352;28;20196;-67
2021/06/07 01:04:00;;;;;;;17.33;14.27;;;;;;;21.30;59.16;95192.16;5053805;28;20242;-68
2021/06/07 01:06:28;;;;;;;15.50;14.00;;;;;;;21.12;59.53;95192.19;5056600;28;20346;-68
2021/06/07 01:08:55;;;;;;;15.97;14.27;;;;;;;21.12;59.59;95194.84;5060243;28;20287;-68
2021/06/07 01:11:22;;;;;;;15.23;13.53;;;;;;;21.17;59.28;95187.81;5072295;28;20629;-67
2021/06/07 01:13:51;;;;;;;14.83;13.33;;;;;;;21.06;59.51;95188.09;5065736;28;20196;-68
2021/06/07 01:16:19;;;;;;;16.53;14.80;;;;;;;21.00;59.78;95188.59;5052274;28;20210;-67
2021/06/07 01:18:47;;;;;;;15.23;13.93;;;;;;;20.80;59.26;95173.94;5051884;28;20189;-67
2021/06/07 01:21:23;;;;;;;16.47;13.87;;;;;;;20.80;59.21;95189.16;5050985;28;20204;-67
2021/06/07 01:23:52;;;;;;;15.40;14.00;;;;;;;21.01;59.02;95180.28;5070566;28;20260;-67
2021/06/07 01:26:21;;;;;;;15.57;14.03;;;;;;;20.87;59.65;95176.16;5061129;28;20212;-68
2021/06/07 01:28:49;;;;;;;15.03;13.43;;;;;;;20.88;59.86;95181.19;5065523;28;20224;-69
2021/06/07 01:31:18;;;;;;;15.73;14.27;;;;;;;20.86;59.82;95177.25;5052157;28;20227;-68
2021/06/07 01:33:48;;;;;;;15.60;14.13;;;;;;;20.85;59.49;95181.81;5065861;28;20202;-68
2021/06/07 01:36:17;;;;;;;16.13;13.67;;;;;;;20.82;58.90;95182.41;5051683;28;20987;-69
2021/06/07 01:38:46;;;;;;;16.20;14.17;;;;;;;20.84;58.88;95174.09;5069917;28;20201;-69
2021/06/07 01:41:15;;;;;;;14.63;13.07;;;;;;;20.88;59.32;95188.38;5071818;28;20204;-69
2021/06/07 01:43:43;;;;;;;14.47;13.00;;;;;;;20.83;59.37;95189.31;5071332;28;20575;-69
2021/06/07 01:46:10;;;;;;;16.43;14.83;;;;;;;20.68;59.68;95191.63;5062099;28;20236;-68
2021/06/07 01:48:37;;;;;;;15.00;13.60;;;;;;;20.57;59.71;95191.16;5067141;28;20208;-69
2021/06/07 01:51:06;;;;;;;15.03;13.60;;;;;;;20.63;59.66;95194.47;5062191;28;20188;-69
2021/06/07 01:53:34;;;;;;;16.67;14.23;;;;;;;20.50;59.49;95190.84;5051726;28;20666;-67
2021/06/07 01:56:05;;;;;;;14.87;13.37;;;;;;;20.48;59.56;95185.03;5071458;28;20662;-69
2021/06/07 01:58:33;;;;;;;15.30;13.33;;;;;;;20.30;60.33;95191.41;5071029;28;20200;-67
2021/06/07 02:01:06;;;;;;;15.17;13.70;;;;;;;20.68;59.64;95189.78;5057405;28;20203;-68
2021/06/07 02:03:33;;;;;;;15.20;13.70;;;;;;;20.76;59.53;95193.53;5070889;28;20454;-68
2021/06/07 02:06:05;;;;;;;14.83;13.50;;;;;;;20.78;59.39;95192.13;5059502;28;20204;-67
2021/06/07 02:08:32;;;;;;;19.20;13.23;;;;;;;20.73;59.88;95194.94;5064568;28;20566;-68
2021/06/07 02:11:04;;;;;;;15.23;13.77;;;;;;;20.58;59.83;95192.75;5060985;28;20449;-67
2021/06/07 02:13:32;;;;;;;15.27;13.87;;;;;;;20.49;59.50;95189.25;5056406;28;20196;-68
2021/06/07 02:16:06;;;;;;;15.00;13.50;;;;;;;20.41;60.46;95192.69;5071019;28;20294;-70
2021/06/07 02:18:35;;;;;;;15.10;13.53;;;;;;;20.57;60.01;95185.84;5070485;28;20281;-68
2021/06/07 02:21:04;;;;;;;15.60;14.03;;;;;;;20.75;59.69;95187.44;5072016;28;20199;-68
2021/06/07 02:23:31;;;;;;;14.43;13.03;;;;;;;20.76;59.58;95183.69;5071086;28;20224;-68
2021/06/07 02:26:00;;;;;;;14.80;13.50;;;;;;;20.73;60.16;95188.84;5072035;28;20215;-68
2021/06/07 02:28:28;;;;;;;16.23;14.63;;;;;;;20.66;59.70;95185.84;5055911;28;20239;-68
2021/06/07 02:30:55;;;;;;;17.00;15.43;;;;;;;20.66;59.28;95189.28;5057968;28;20242;-68
2021/06/07 02:33:22;;;;;;;16.07;14.37;;;;;;;20.56;59.49;95194.13;5070684;28;20207;-68
2021/06/07 02:35:49;;;;;;;16.57;14.57;;;;;;;20.48;59.98;95187.69;5070665;28;20204;-69
2021/06/07 02:38:17;;;;;;;16.87;15.13;;;;;;;20.44;59.85;95192.06;5070436;28;20214;-68
2021/06/07 02:40:49;;;;;;;16.07;14.40;;;;;;;20.17;60.89;95186.97;5064044;28;20673;-68
2021/06/07 02:43:16;;;;;;;20.30;15.63;;;;;;;19.91;61.95;95188.72;5063969;28;20766;-69
2021/06/07 02:45:43;;;;;;;18.63;14.90;;;;;;;20.36;60.49;95194.72;5069344;28;20192;-68
2021/06/07 02:48:11;;;;;;;17.03;15.00;;;;;;;20.44;60.33;95192.06;5069984;28;20485;-68
2021/06/07 02:50:41;;;;;;;24.30;16.00;;;;;;;20.45;60.06;95188.31;5070161;28;20821;-69
2021/06/07 02:53:08;;;;;;;20.83;17.50;;;;;;;20.54;60.46;95186.47;5070108;28;20227;-69
2021/06/07 02:55:38;;;;;;;20.73;16.60;;;;;;;20.55;60.74;95189.88;5070126;28;20441;-67
2021/06/07 02:58:06;;;;;;;18.20;16.40;;;;;;;20.54;60.86;95178.47;5070093;28;20204;-69
2021/06/07 03:00:37;;;;;;;16.77;15.17;;;;;;;20.65;60.58;95185.06;5069788;28;20187;-69
2021/06/07 03:03:06;;;;;;;17.33;15.40;;;;;;;20.52;60.52;95193.97;5070420;28;20206;-68
2021/06/07 03:05:33;;;;;;;17.47;15.70;;;;;;;20.50;60.36;95185.50;5062167;28;20199;-68
2021/06/07 03:08:02;;;;;;;17.10;15.30;;;;;;;20.64;60.23;95196.81;5064622;28;20235;-68
2021/06/07 03:10:29;;;;;;;16.93;15.23;;;;;;;20.75;60.12;95192.75;5063335;28;20438;-68
2021/06/07 03:12:56;;;;;;;17.50;15.77;;;;;;;20.70;59.82;95189.44;5050478;28;20231;-67
2021/06/07 03:15:24;;;;;;;20.63;16.33;;;;;;;20.67;60.55;95193.53;5068715;28;20533;-68
2021/06/07 03:17:52;;;;;;;22.43;16.27;;;;;;;20.83;60.11;95196.53;5070136;28;20286;-68
2021/06/07 03:20:25;;;;;;;18.63;15.73;;;;;;;20.69;59.78;95196.66;5051026;28;20192;-67
2021/06/07 03:22:58;;;;;;;16.27;14.53;;;;;;;20.24;60.82;95203.28;5054711;28;20192;-68
2021/06/07 03:25:26;;;;;;;17.73;14.60;;;;;;;20.38;60.55;95198.66;5051098;28;20720;-68
2021/06/07 03:27:53;;;;;;;18.53;15.63;;;;;;;20.39;60.46;95200.19;5060227;28;20215;-67
2021/06/07 03:30:20;;;;;;;19.10;15.90;;;;;;;20.60;60.40;95201.19;5054926;28;20745;-68
2021/06/07 03:32:48;;;;;;;21.77;16.00;;;;;;;20.48;60.79;95193.00;5069673;28;20583;-68
2021/06/07 03:35:18;;;;;;;17.20;15.33;;;;;;;20.62;60.96;95206.97;5055191;28;20455;-69
2021/06/07 03:37:46;;;;;;;17.77;15.90;;;;;;;20.36;60.68;95192.84;5070131;28;20281;-69
2021/06/07 03:40:17;;;;;;;20.83;15.30;;;;;;;20.65;60.77;95208.25;5055159;28;20446;-70
2021/06/07 03:42:45;;;;;;;17.97;15.93;;;;;;;20.15;61.18;95207.75;5065828;28;20199;-68
2021/06/07 03:45:14;;;;;;;25.13;16.33;;;;;;;20.32;61.11;95212.38;5062043;28;20198;-68
2021/06/07 03:47:41;;;;;;;17.53;14.83;;;;;;;20.65;60.27;95203.72;5062557;28;20335;-69
2021/06/07 03:50:10;;;;;;;24.83;15.77;;;;;;;20.67;60.20;95190.88;5063859;28;20203;-67
2021/06/07 03:52:38;;;;;;;16.53;14.83;;;;;;;20.85;60.05;95208.44;5069308;28;20200;-68
2021/06/07 03:55:07;;;;;;;19.43;15.57;;;;;;;20.97;60.24;95210.47;5069141;28;20208;-69
2021/06/07 03:57:34;;;;;;;22.77;16.07;;;;;;;20.94;59.87;95222.56;5067008;28;20192;-67
2021/06/07 04:00:05;;;;;;;21.80;15.67;;;;;;;20.83;59.33;95192.00;5056157;28;20196;-68
2021/06/07 04:02:37;;;;;;;23.07;16.63;;;;;;;20.97;59.60;95211.28;5064396;28;20203;-68
2021/06/07 04:05:06;;;;;;;20.63;17.20;;;;;;;21.07;58.65;95210.22;5055217;28;20200;-69
2021/06/07 04:07:34;;;;;;;17.67;15.77;;;;;;;20.80;58.92;95208.56;5059607;28;20215;-69
2021/06/07 04:10:04;;;;;;;18.40;16.50;;;;;;;20.83;58.64;95205.31;5065868;28;20192;-68
2021/06/07 04:12:31;;;;;;;18.10;16.37;;;;;;;20.95;58.42;95210.00;5058595;28;20192;-66
2021/06/07 04:14:58;;;;;;;21.73;17.33;;;;;;;20.97;58.26;95200.59;5066042;28;20602;-67
2021/06/07 04:17:25;;;;;;;21.90;15.73;;;;;;;21.05;57.90;95202.53;5063235;28;20223;-66
2021/06/07 04:19:52;;;;;;;19.53;15.60;;;;;;;21.14;57.72;95200.66;5063361;28;20656;-67
2021/06/07 04:22:20;;;;;;;18.30;16.43;;;;;;;21.10;58.61;95194.38;5064979;28;20263;-68
2021/06/07 04:24:46;;;;;;;18.07;16.47;;;;;;;21.08;58.17;95199.25;5067190;28;20283;-69
2021/06/07 04:27:17;;;;;;;19.93;16.27;;;;;;;21.14;58.65;95203.31;5066193;28;20212;-71
2021/06/07 04:29:44;;;;;;;22.70;16.93;;;;;;;21.24;58.26;95210.19;5064212;28;22030;-69
2021/06/07 04:32:28;;;;;;;19.93;16.07;;;;;;;21.21;58.26;95210.03;5059198;28;20187;-69
2021/06/07 04:34:55;;;;;;;17.47;15.60;;;;;;;21.24;58.58;95206.78;5069156;28;20195;-69
2021/06/07 04:37:22;;;;;;;18.50;16.57;;;;;;;20.77;58.31;95189.78;5069577;28;20196;-71
2021/06/07 04:39:49;;;;;;;17.67;15.90;;;;;;;21.00;58.95;95215.22;5057185;28;20639;-69
2021/06/07 04:42:16;;;;;;;22.47;18.10;;;;;;;21.08;58.92;95212.56;5072091;28;20658;-74
2021/06/07 04:44:43;;;;;;;18.47;16.43;;;;;;;21.09;59.20;95206.13;5072369;28;20204;-69
2021/06/07 04:47:09;;;;;;;58.60;52.50;;;;;;;21.23;58.85;95210.50;5072409;28;20309;-68
2021/06/07 04:49:36;;;;;;;64.33;57.33;;;;;;;21.38;58.56;95216.16;5061838;28;20192;-70
2021/06/07 04:52:04;;;;;;;47.33;42.77;;;;;;;21.56;57.60;95211.59;5051640;28;20266;-69
2021/06/07 04:54:31;;;;;;;20.13;17.33;;;;;;;21.58;57.11;95204.06;5061295;28;20203;-70
2021/06/07 04:56:58;;;;;;;18.23;16.33;;;;;;;21.59;56.25;95205.63;5058324;28;20273;-70
2021/06/07 04:59:25;;;;;;;16.97;15.33;;;;;;;21.52;55.90;95191.97;5063944;28;20192;-72
2021/06/07 05:01:52;;;;;;;20.87;15.87;;;;;;;21.30;56.11;95171.63;5059124;28;20192;-71
2021/06/07 05:04:19;;;;;;;17.33;15.63;;;;;;;21.41;57.28;95215.53;5071919;28;20648;-74
2021/06/07 05:06:46;;;;;;;18.33;16.43;;;;;;;21.58;57.37;95214.72;5052666;28;20216;-69
2021/06/07 05:09:13;;;;;;;17.40;15.63;;;;;;;21.73;56.47;95214.22;5051823;28;20204;-69
2021/06/07 05:11:41;;;;;;;19.10;16.67;;;;;;;21.74;56.29;95203.25;5067968;28;20330;-69
2021/06/07 05:14:10;;;;;;;18.50;16.20;;;;;;;21.78;56.37;95214.06;5071359;28;20219;-70
2021/06/07 05:16:36;;;;;;;24.23;15.77;;;;;;;21.78;56.73;95220.19;5057358;28;20291;-69
2021/06/07 05:19:03;;;;;;;19.70;15.93;;;;;;;21.69;56.78;95215.97;5064284;28;20207;-69
2021/06/07 05:21:30;;;;;;;20.13;15.97;;;;;;;21.82;56.65;95212.34;5052753;28;20284;-70
2021/06/07 05:23:57;;;;;;;17.83;15.30;;;;;;;21.97;56.01;95211.81;5049989;28;20189;-66
2021/06/07 05:26:24;;;;;;;17.20;15.50;;;;;;;21.51;54.93;95209.09;5063753;28;20511;-69
2021/06/07 05:28:51;;;;;;;17.80;15.30;;;;;;;21.20;55.74;95217.28;5057990;28;20238;-69
2021/06/07 05:31:18;;;;;;;17.57;15.07;;;;;;;21.55;54.84;95221.47;5072182;28;20796;-76
2021/06/07 05:33:45;;;;;;;18.13;15.70;;;;;;;21.90;55.03;95216.88;5057877;28;20218;-71
2021/06/07 05:36:12;;;;;;;19.63;15.20;;;;;;;21.74;56.14;95207.78;5063808;28;20189;-71
2021/06/07 05:38:39;;;;;;;21.03;15.17;;;;;;;21.99;55.00;95215.75;5070197;28;20199;-76
2021/06/07 05:41:06;;;;;;;14.20;12.90;;;;;;;22.12;53.61;95197.97;5072228;28;20196;-70
2021/06/07 05:43:33;;;;;;;17.33;13.97;;;;;;;22.19;52.61;95214.25;5067548;28;20195;-74
2021/06/07 05:46:00;;;;;;;17.20;14.13;;;;;;;22.47;52.25;95215.41;5051850;28;20224;-70
2021/06/07 05:48:27;;;;;;;19.47;14.20;;;;;;;22.36;53.75;95216.88;5052062;28;20215;-74
2021/06/07 05:50:54;;;;;;;15.10;13.43;;;;;;;22.73;51.75;95218.75;5065336;28;20224;-75
2021/06/07 05:53:21;;;;;;;14.67;13.17;;;;;;;22.51;50.38;95215.53;5051440;28;20196;-71
2021/06/07 05:55:48;;;;;;;14.53;12.83;;;;;;;22.19;50.64;95224.19;5070636;28;20305;-67
2021/06/07 05:58:18;;;;;;;16.33;13.33;;;;;;;22.33;51.13;95214.06;5071663;28;20614;-72
2021/06/07 06:00:48;;;;;;;20.00;12.80;;;;;;;22.43;52.11;95219.81;5071204;28;20196;-68
2021/06/07 06:03:16;;;;;;;14.27;12.97;;;;;;;22.59;50.85;95218.19;5071840;28;20572;-68
2021/06/07 06:05:44;;;;;;;13.47;12.07;;;;;;;22.55;50.23;95219.97;5071792;28;20188;-71
2021/06/07 06:08:12;;;;;;;19.40;12.97;;;;;;;22.65;48.98;95211.56;5056923;28;20228;-69
2021/06/07 06:10:40;;;;;;;14.33;12.13;;;;;;;22.80;49.40;95207.53;5063386;28;20196;-72
2021/06/07 06:13:27;;;;;;;17.17;12.70;;;;;;;22.85;50.62;95215.38;5054322;28;20191;-71
2021/06/07 06:15:54;;;;;;;21.10;12.83;;;;;;;23.07;50.15;95218.53;5062173;28;20200;-73
2021/06/07 06:18:21;;;;;;;20.03;13.20;;;;;;;23.09;51.24;95213.63;5064882;28;20204;-70
2021/06/07 06:20:48;;;;;;;17.57;12.50;;;;;;;23.16;50.21;95215.00;5051369;28;20196;-75
2021/06/07 06:23:15;;;;;;;14.93;12.37;;;;;;;22.95;49.65;95204.31;5065184;28;20224;-71
2021/06/07 06:25:42;;;;;;;18.40;13.10;;;;;;;22.96;50.96;95214.66;5051473;28;20206;-74
2021/06/07 06:28:11;;;;;;;16.43;12.37;;;;;;;23.07;50.99;95210.50;5064478;28;20215;-68
2021/06/07 06:30:38;;;;;;;18.27;12.03;;;;;;;22.90;49.82;95207.94;5071090;28;20234;-69
2021/06/07 06:33:05;;;;;;;14.03;11.83;;;;;;;22.33;49.87;95217.53;5060761;28;20212;-71
2021/06/07 06:35:32;;;;;;;13.07;11.73;;;;;;;22.73;49.81;95218.75;5052753;28;20203;-70
2021/06/07 06:38:00;;;;;;;14.90;11.67;;;;;;;22.88;49.73;95209.38;5066877;28;20280;-72
2021/06/07 06:40:30;;;;;;;14.73;12.60;;;;;;;23.37;49.18;95202.44;5067582;28;20195;-71
2021/06/07 06:42:59;;;;;;;17.93;12.70;;;;;;;22.94;49.41;95214.22;5051442;28;20706;-72
2021/06/07 06:45:28;;;;;;;16.77;12.40;;;;;;;22.99;49.62;95215.91;5068592;28;20192;-72
2021/06/07 06:47:56;;;;;;;13.63;11.63;;;;;;;22.79;48.31;95217.44;5070673;28;20247;-67
2021/06/07 06:50:34;;;;;;;12.43;11.33;;;;;;;23.28;48.22;95215.84;5056221;28;20583;-73
2021/06/07 06:53:04;;;;;;;13.43;11.53;;;;;;;23.39;47.67;95218.94;5070073;28;20234;-68
2021/06/07 06:55:32;;;;;;;13.53;11.07;;;;;;;23.35;47.86;95226.84;5053538;28;20239;-75
2021/06/07 06:58:00;;;;;;;12.63;11.03;;;;;;;23.29;47.11;95216.63;5059391;28;20761;-66
2021/06/07 07:00:28;;;;;;;14.20;12.03;;;;;;;23.48;46.97;95217.75;5068378;28;20210;-65
2021/06/07 07:02:55;;;;;;;12.57;11.17;;;;;;;23.63;47.46;95222.47;5058141;28;20203;-70
2021/06/07 07:05:23;;;;;;;14.60;11.53;;;;;;;23.64;47.36;95216.03;5063666;28;20188;-75
2021/06/07 07:07:50;;;;;;;16.47;10.80;;;;;;;23.65;47.15;95217.56;5063113;28;20222;-68
2021/06/07 07:10:16;;;;;;;13.10;10.50;;;;;;;23.60;46.31;95220.47;5051253;28;20196;-73
2021/06/07 07:12:44;;;;;;;13.47;10.93;;;;;;;23.58;47.40;95227.25;5073753;28;20296;-69
2021/06/07 07:15:11;;;;;;;15.10;10.80;;;;;;;23.81;45.92;95215.06;5063784;28;20187;-71
2021/06/07 07:17:38;;;;;;;13.60;10.67;;;;;;;23.86;46.13;95212.97;5050293;28;20200;-73
2021/06/07 07:20:06;;;;;;;12.07;10.87;;;;;;;23.77;45.63;95219.53;5050139;28;20212;-68
2021/06/07 07:22:34;;;;;;;12.90;11.43;;;;;;;23.87;47.46;95225.22;5050504;28;20219;-68
2021/06/07 07:25:03;;;;;;;12.33;11.13;;;;;;;24.04;46.72;95221.63;5050496;28;20192;-72
2021/06/07 07:27:32;;;;;;;15.33;11.20;;;;;;;23.72;47.41;95212.47;5063381;28;20200;-68
2021/06/07 07:29:59;;;;;;;17.17;11.07;;;;;;;23.75;46.43;95216.38;5050063;28;20546;-72
2021/06/07 07:32:28;;;;;;;15.53;12.40;;;;;;;23.80;47.21;95218.84;5064008;28;20192;-68
2021/06/07 07:34:55;;;;;;;12.63;10.67;;;;;;;23.99;46.82;95221.81;5050995;28;20207;-73
2021/06/07 07:37:22;;;;;;;15.13;11.70;;;;;;;24.08;46.92;95222.53;5068536;28;20745;-74
2021/06/07 07:39:49;;;;;;;15.10;12.13;;;;;;;23.93;47.44;95218.56;5056581;28;20200;-71
2021/06/07 07:42:16;;;;;;;17.87;11.57;;;;;;;23.95;46.09;95220.91;5064007;28;20197;-71
2021/06/07 07:44:43;;;;;;;11.87;10.63;;;;;;;23.63;46.91;95219.03;5050636;28;20208;-70
2021/06/07 07:47:10;;;;;;;14.23;10.60;;;;;;;23.74;46.06;95220.19;5054021;28;20653;-70
2021/06/07 07:49:37;;;;;;;11.63;10.17;;;;;;;24.01;45.42;95222.28;5070080;28;20527;-78
2021/06/07 07:52:06;;;;;;;14.67;10.83;;;;;;;23.73;46.49;95221.28;5072778;28;20203;-71
2021/06/07 07:54:34;;;;;;;14.57;10.80;;;;;;;24.19;46.71;95220.97;5069724;28;20195;-68
2021/06/07 07:57:02;;;;;;;14.30;10.47;;;;;;;23.97;45.96;95221.34;5070590;28;20665;-65
2021/06/07 07:59:29;;;;;;;13.50;10.73;;;;;;;24.15;45.76;95214.72;5070117;28;20187;-71
2021/06/07 08:01:58;;;;;;;13.17;11.07;;;;;;;23.85;45.99;95226.66;5069374;28;20666;-69
2021/06/07 08:04:25;;;;;;;11.97;10.87;;;;;;;23.62;45.82;95217.47;5069477;28;20311;-69
2021/06/07 08:06:51;;;;;;;14.37;11.43;;;;;;;23.82;45.98;95221.97;5054605;28;20189;-69
2021/06/07 08:09:18;;;;;;;12.47;11.27;;;;;;;23.71;45.65;95232.31;5064397;28;20212;-69
2021/06/07 08:11:45;;;;;;;12.47;11.37;;;;;;;24.12;45.97;95225.31;5073762;28;20199;-68
2021/06/07 08:14:12;;;;;;;12.17;10.73;;;;;;;23.59;46.08;95226.16;5073251;28;20218;-68
2021/06/07 08:16:39;;;;;;;12.40;10.93;;;;;;;24.28;46.04;95229.69;5059793;28;20675;-68
2021/06/07 08:19:06;;;;;;;23.87;11.17;;;;;;;24.22;45.14;95203.44;5073446;28;20253;-73
2021/06/07 08:21:33;;;;;;;12.97;11.27;;;;;;;24.38;45.42;95217.78;5073520;28;20203;-71
2021/06/07 08:24:01;;;;;;;13.23;11.87;;;;;;;24.40;46.50;95224.34;5053481;28;20258;-72
2021/06/07 08:26:28;;;;;;;14.67;13.17;;;;;;;24.56;45.42;95219.88;5053520;28;20193;-69
2021/06/07 08:28:55;;;;;;;13.73;11.40;;;;;;;24.64;45.22;95220.88;5051336;28;20596;-71
2021/06/07 08:31:22;;;;;;;12.17;10.97;;;;;;;25.02;44.83;95215.94;5053534;28;20228;-68
2021/06/07 08:33:53;;;;;;;14.40;10.40;;;;;;;24.57;44.30;95216.09;5066903;28;20200;-69
2021/06/07 08:36:21;;;;;;;13.60;10.43;;;;;;;24.99;44.47;95217.44;5063083;28;20199;-74
2021/06/07 08:38:48;;;;;;;11.77;10.57;;;;;;;25.00;44.02;95215.50;5072551;28;20674;-76
2021/06/07 08:41:16;;;;;;;11.43;10.33;;;;;;;24.80;44.03;95217.22;5073200;28;20283;-68
2021/06/07 08:43:43;;;;;;;12.43;11.20;;;;;;;24.18;44.63;95207.94;5068961;28;20687;-69
2021/06/07 08:46:20;;;;;;;12.10;10.77;;;;;;;23.76;45.24;95207.25;5064268;28;20192;-68
2021/06/07 08:48:47;;;;;;;15.73;11.57;;;;;;;24.38;45.48;95210.50;5058250;28;20281;-71
2021/06/07 08:51:14;;;;;;;13.57;10.90;;;;;;;24.43;44.82;95199.59;5063492;28;20196;-72
2021/06/07 08:53:41;;;;;;;12.93;11.07;;;;;;;24.85;44.84;95206.25;5054350;28;20204;-70
2021/06/07 08:56:08;;;;;;;11.90;10.70;;;;;;;24.93;44.38;95202.69;5064915;28;20271;-71
2021/06/07 08:58:35;;;;;;;15.83;10.43;;;;;;;25.07;43.35;95203.09;5052164;28;20197;-73
2021/06/07 09:01:02;;;;;;;12.13;10.93;;;;;;;25.14;42.96;95201.75;5059242;28;20284;-69
2021/06/07 09:03:32;;;;;;;11.63;10.10;;;;;;;25.38;42.15;95199.03;5060260;28;20188;-75
2021/06/07 09:06:01;;;;;;;11.73;10.63;;;;;;;25.47;41.58;95194.28;5059238;28;20197;-71
2021/06/07 09:08:33;;;;;;;11.40;9.93;;;;;;;25.07;41.86;95176.28;5066326;28;20216;-68
2021/06/07 09:11:10;;;;;;;12.73;10.10;;;;;;;25.24;43.35;95185.94;5052889;28;20228;-71
2021/06/07 09:13:38;;;;;;;15.73;11.13;;;;;;;25.53;43.07;95182.97;5055847;28;20196;-69
2021/06/07 09:16:07;;;;;;;11.60;10.40;;;;;;;25.59;42.86;95186.19;5072689;28;20536;-75
2021/06/07 09:18:34;;;;;;;12.57;10.07;;;;;;;25.50;42.50;95186.34;5068025;28;20701;-69
2021/06/07 09:21:01;;;;;;;15.57;10.13;;;;;;;25.36;43.28;95185.13;5061376;28;20192;-70
2021/06/07 09:24:05;;;;;;;10.83;9.50;;;;;;;25.28;42.51;95178.00;5071509;28;20250;-68
2021/06/07 09:26:40;;;;;;;14.20;9.37;;;;;;;25.23;42.29;95167.50;5055231;28;20204;-69
2021/06/07 09:29:31;;;;;;;11.33;9.20;;;;;;;25.03;42.73;95190.72;5057600;28;20220;-75
2021/06/07 09:32:00;;;;;;;9.50;8.60;;;;;;;24.98;42.71;95194.41;5054860;28;20572;-68
2021/06/07 09:34:35;;;;;;;10.53;9.10;;;;;;;24.68;42.82;95195.78;5063958;28;20631;-67
2021/06/07 09:37:12;;;;;;;10.67;8.47;;;;;;;24.67;42.61;95194.19;5067803;28;20191;-75
2021/06/07 09:39:40;;;;;;;10.43;8.27;;;;;;;24.66;41.87;95200.69;5071466;28;20202;-65
2021/06/07 09:42:14;;;;;;;8.97;7.00;;;;;;;23.92;42.20;95208.94;5057551;28;20188;-70
2021/06/07 09:44:52;;;;;;;11.63;7.63;;;;;;;23.39;44.44;95224.28;5060018;28;20200;-71
2021/06/07 09:47:30;;;;;;;10.33;8.47;;;;;;;22.63;47.95;95224.47;5065856;28;20202;-70
2021/06/07 09:50:03;;;;;;;11.93;8.47;;;;;;;22.92;49.17;95219.09;5051129;28;20274;-74
2021/06/07 09:52:33;;;;;;;9.30;7.47;;;;;;;22.19;48.43;95226.84;5058221;28;20318;-68
2021/06/07 09:55:06;;;;;;;8.07;6.20;;;;;;;22.45;47.19;95233.63;5058921;28;20204;-70
2021/06/07 09:58:05;;;;;;;11.43;6.03;;;;;;;21.97;49.26;95238.50;5056984;28;20545;-71
2021/06/07 10:00:52;;;;;;;6.67;5.43;;;;;;;21.50;49.74;95244.84;5066847;28;20207;-73
2021/06/07 10:03:24;;;;;;;10.00;6.67;;;;;;;21.84;50.55;95234.16;5071596;28;20276;-71
2021/06/07 10:06:02;;;;;;;8.30;6.43;;;;;;;21.83;50.91;95235.25;5060988;28;20274;-67
2021/06/07 10:08:47;;;;;;;8.10;6.67;;;;;;;21.67;50.98;95229.63;5065123;28;20226;-70
2021/06/07 10:11:29;;;;;;;7.80;7.00;;;;;;;21.47;51.73;95224.16;5051544;28;20211;-70
2021/06/07 10:14:16;;;;;;;9.00;7.03;;;;;;;21.01;52.27;95233.56;5058354;28;20269;-68
2021/06/07 10:16:53;;;;;;;9.13;6.70;;;;;;;21.12;52.86;95226.84;5055154;28;20227;-67
2021/06/07 10:19:30;;;;;;;9.17;7.80;;;;;;;20.85;54.01;95226.31;5060517;28;20227;-68
2021/06/07 10:21:59;;;;;;;11.87;7.77;;;;;;;21.25;54.60;95216.31;5056969;28;20215;-74
2021/06/07 10:24:27;;;;;;;10.80;9.70;;;;;;;21.38;55.85;95223.38;5061346;28;20207;-65
2021/06/07 10:26:55;;;;;;;12.60;10.27;;;;;;;21.59;56.23;95216.28;5066706;28;20776;-70
2021/06/07 10:29:22;;;;;;;13.67;11.10;;;;;;;21.90;56.55;95211.53;5070630;28;20216;-72
2021/06/07 10:31:49;;;;;;;14.50;13.00;;;;;;;21.52;59.81;95215.97;5070635;28;20228;-73
2021/06/07 10:34:16;;;;;;;15.73;13.40;;;;;;;21.40;61.52;95221.19;5063819;28;20192;-77
2021/06/07 10:36:46;;;;;;;17.80;14.57;;;;;;;21.52;61.29;95226.66;5052871;28;20204;-70
2021/06/07 10:39:17;;;;;;;18.03;15.63;;;;;;;21.63;61.03;95218.00;5070552;28;20187;-67
2021/06/07 10:41:57;;;;;;;16.87;15.20;;;;;;;21.51;60.92;95223.22;5069412;28;20588;-68
2021/06/07 10:44:55;;;;;;;15.00;13.70;;;;;;;21.84;59.12;95224.25;5070798;28;20200;-68
2021/06/07 10:47:27;;;;;;;16.33;14.63;;;;;;;21.63;60.33;95219.88;5065564;28;20682;-74
2021/06/07 10:49:55;;;;;;;17.60;15.73;;;;;;;21.68;60.98;95222.38;5070195;28;20234;-73
2021/06/07 10:52:27;;;;;;;17.87;16.07;;;;;;;21.13;62.47;95217.72;5070992;28;20214;-70
2021/06/07 10:54:59;;;;;;;19.20;17.23;;;;;;;21.30;63.10;95224.94;5063000;28;20196;-69
2021/06/07 10:57:30;;;;;;;19.13;16.73;;;;;;;21.12;62.77;95221.50;5074572;28;20196;-68
2021/06/07 10:59:58;;;;;;;18.77;15.80;;;;;;;21.04;62.92;95224.94;5071610;28;20211;-71
2021/06/07 11:02:31;;;;;;;16.53;14.83;;;;;;;20.93;62.97;95220.97;5056619;28;20195;-65
2021/06/07 11:05:23;;;;;;;23.73;15.13;;;;;;;21.31;61.17;95213.19;5059271;28;20576;-72
2021/06/07 11:08:06;;;;;;;20.00;13.57;;;;;;;21.41;59.96;95204.88;5063093;28;20278;-75
2021/06/07 11:10:39;;;;;;;31.23;14.93;;;;;;;21.76;59.80;95210.91;5063313;28;20227;-70
2021/06/07 11:13:09;;;;;;;37.87;16.47;;;;;;;21.83;60.25;95213.91;5050161;28;20223;-68
2021/06/07 11:16:03;;;;;;;25.03;14.33;;;;;;;21.76;61.52;95216.25;5057128;28;20187;-70
2021/06/07 11:18:31;;;;;;;19.47;14.50;;;;;;;22.22;59.75;95208.31;5066727;28;20204;-70
2021/06/07 11:21:08;;;;;;;15.60;13.97;;;;;;;22.36;59.57;95208.84;5059520;28;20227;-68
2021/06/07 11:23:44;;;;;;;13.93;12.27;;;;;;;22.14;58.73;95217.13;5055535;28;20211;-65
2021/06/07 11:26:18;;;;;;;15.10;13.60;;;;;;;22.32;58.56;95210.59;5070470;28;20215;-71
2021/06/07 11:28:48;;;;;;;13.73;12.20;;;;;;;22.14;58.73;95217.91;5069798;28;20219;-71
2021/06/07 11:31:18;;;;;;;12.73;11.53;;;;;;;22.06;58.68;95204.59;5060317;28;20303;-75